Time;durP1;ratioP1;P1;durP2;ratioP2;P2;SDS_P1;SDS_P2;PMS_P1;PMS_P2;Temp;Humidity;BMP_temperature;BMP_pressure;BME280_temperature;BME280_humidity;BME280_pressure;Samples;Min_cycle;Max_cycle;Signal;HPM_P1;HPM_P2
2023/01/19 00:02:06;;;;;;;91.50;46.50;;;;;;;2.56;81.24;98914.27;128977;1252;128829;-63
2023/01/19 00:05:12;;;;;;;88.50;46.40;;;;;;;2.59;81.44;98920.64;129152;1256;116197;-62
2023/01/19 00:08:17;;;;;;;99.00;50.50;;;;;;;2.64;81.49;98929.29;129136;1256;113263;-63
2023/01/19 00:11:24;;;;;;;98.50;51.40;;;;;;;2.67;81.31;98939.38;129195;1254;113326;-62
2023/01/19 00:14:29;;;;;;;96.50;51.00;;;;;;;2.71;81.36;98941.71;129096;1251;113437;-63
2023/01/19 00:17:34;;;;;;;90.80;48.40;;;;;;;2.73;81.40;98946.73;129033;1257;128699;-63
2023/01/19 00:20:39;;;;;;;104.40;55.10;;;;;;;2.76;81.58;98948.21;128964;1256;114706;-63
2023/01/19 00:23:49;;;;;;;107.10;54.60;;;;;;;2.78;81.49;98953.97;128885;1260;113288;-63
2023/01/19 00:26:55;;;;;;;105.30;55.20;;;;;;;2.79;81.29;98957.42;128975;1260;113307;-64
2023/01/19 00:30:01;;;;;;;99.50;50.00;;;;;;;2.81;81.48;98964.77;129112;1257;114089;-63
2023/01/19 00:33:06;;;;;;;95.60;50.70;;;;;;;2.82;81.32;98967.20;128982;1257;126984;-63
2023/01/19 00:36:10;;;;;;;104.60;53.10;;;;;;;2.83;81.33;98974.89;129019;1255;114790;-64
2023/01/19 00:39:17;;;;;;;101.20;49.80;;;;;;;2.85;81.34;98974.31;129181;1251;113273;-63
2023/01/19 00:42:43;;;;;;;95.70;47.90;;;;;;;2.84;81.22;98978.54;129137;1257;113157;-63
2023/01/19 00:45:52;;;;;;;82.30;44.40;;;;;;;2.85;81.20;98983.63;129063;1251;113388;-63
2023/01/19 00:49:05;;;;;;;77.00;42.50;;;;;;;2.85;81.20;98984.67;129008;1251;128404;-63
2023/01/19 00:52:11;;;;;;;89.00;46.00;;;;;;;2.85;81.06;98983.11;128942;1257;114702;-65
2023/01/19 00:55:16;;;;;;;85.90;43.30;;;;;;;2.86;80.91;98989.76;128890;1262;113322;-65
2023/01/19 00:58:25;;;;;;;81.70;42.60;;;;;;;2.86;81.00;98993.45;129099;1251;113247;-64
2023/01/19 01:01:31;;;;;;;;;;;;;;;2.87;81.17;99000.80;128926;1253;113205;-64
2023/01/19 01:04:44;;;;;;;71.60;38.90;;;;;;;2.87;81.02;99006.15;128826;1251;128522;-63
2023/01/19 01:07:50;;;;;;;73.90;38.70;;;;;;;2.88;80.97;99008.06;128829;1256;114830;-64
2023/01/19 01:10:55;;;;;;;69.30;38.00;;;;;;;2.88;80.90;99011.77;128903;1257;113168;-65
2023/01/19 01:13:59;;;;;;;66.70;35.50;;;;;;;2.87;80.87;99021.30;129126;1256;113282;-64
2023/01/19 01:17:02;;;;;;;52.10;30.00;;;;;;;2.87;80.90;99025.89;130977;1248;114760;-61
2023/01/19 01:20:05;;;;;;;54.50;31.40;;;;;;;2.86;80.58;99027.36;129949;1276;115312;-62
2023/01/19 01:23:07;;;;;;;51.20;28.10;;;;;;;2.84;80.44;99025.31;130049;1257;114735;-62
2023/01/19 01:26:10;;;;;;;47.70;27.60;;;;;;;2.80;80.19;99028.97;130081;1257;115080;-63
2023/01/19 01:29:12;;;;;;;51.30;28.70;;;;;;;2.78;80.39;99024.30;130027;1258;114681;-63
2023/01/19 01:32:16;;;;;;;47.90;28.70;;;;;;;2.77;80.26;99028.91;129987;1254;114759;-65
2023/01/19 01:35:18;;;;;;;35.80;22.00;;;;;;;2.73;80.42;99030.83;129942;1257;114777;-65
2023/01/19 01:38:21;;;;;;;34.90;20.30;;;;;;;2.70;80.44;99033.59;129984;1258;114708;-62
2023/01/19 01:41:25;;;;;;;27.10;16.90;;;;;;;2.66;80.10;99040.43;130037;1259;115391;-63
2023/01/19 01:44:50;;;;;;;26.90;16.40;;;;;;;2.59;80.07;99044.19;130088;1257;114732;-61
2023/01/19 01:47:53;;;;;;;23.90;16.30;;;;;;;2.53;79.89;99046.20;129726;1263;114793;-61
2023/01/19 01:54:27;;;;;;;22.40;14.20;;;;;;;2.43;79.87;99042.88;129946;1268;128708;-64
2023/01/19 01:57:29;;;;;;;22.10;14.10;;;;;;;2.40;79.87;99042.78;129570;1254;115237;-63
2023/01/19 02:02:49;;;;;;;20.90;13.40;;;;;;;2.37;79.80;99049.96;129917;1257;114699;-63
2023/01/19 02:03:55;;;;;;;21.60;14.50;;;;;;;2.33;79.85;99049.77;129663;1264;114974;-65
2023/01/19 02:13:45;;;;;;;23.70;14.20;;;;;;;2.29;80.01;99050.77;129916;1256;115131;-63
2023/01/19 02:16:48;;;;;;;20.00;13.10;;;;;;;2.27;79.96;99045.88;129823;1266;114751;-61
2023/01/19 02:19:50;;;;;;;20.60;13.00;;;;;;;2.26;79.97;99045.21;129785;1256;114724;-63
2023/01/19 02:22:54;;;;;;;21.20;14.60;;;;;;;2.22;79.70;99049.23;129748;1260;114682;-62
2023/01/19 02:25:57;;;;;;;18.40;12.90;;;;;;;2.19;79.67;99049.36;129764;1261;114800;-63
2023/01/19 02:29:15;;;;;;;20.90;14.00;;;;;;;2.17;79.64;99056.84;129941;1259;115055;-64
2023/01/19 02:32:17;;;;;;;19.80;12.60;;;;;;;2.14;79.65;99062.90;129842;1256;114684;-61
2023/01/19 02:35:20;;;;;;;20.00;13.30;;;;;;;2.12;79.60;99070.21;129939;1259;114720;-63
2023/01/19 02:38:25;;;;;;;19.30;13.00;;;;;;;2.09;79.69;99073.30;129815;1259;115228;-62
2023/01/19 02:41:29;;;;;;;;;;;;;;;2.08;79.79;99074.57;129879;1278;129763;-61
2023/01/19 02:44:32;;;;;;;18.70;12.00;;;;;;;2.07;79.94;99075.67;129578;1270;115151;-62
2023/01/19 02:47:40;;;;;;;18.70;12.80;;;;;;;2.06;80.03;99075.16;130261;1256;114920;-63
2023/01/19 02:50:47;;;;;;;16.30;11.70;;;;;;;2.07;79.98;99071.61;129684;1256;115466;-65
2023/01/19 02:54:02;;;;;;;18.20;12.20;;;;;;;2.07;79.99;99072.67;130066;1259;116374;-63
2023/01/19 02:57:42;;;;;;;15.90;11.70;;;;;;;2.06;79.75;99071.13;130061;1278;128161;-64
2023/01/19 03:00:51;;;;;;;12.80;9.30;;;;;;;2.05;79.36;99065.36;129561;1278;114873;-64
2023/01/19 03:04:00;;;;;;;16.20;9.80;;;;;;;2.02;79.57;99061.91;129706;1256;114780;-63
2023/01/19 03:07:29;;;;;;;11.40;8.70;;;;;;;2.02;79.55;99061.77;130144;1258;114788;-64
2023/01/19 03:11:05;;;;;;;8.50;7.10;;;;;;;1.99;79.40;99066.06;129850;1258;114718;-64
2023/01/19 03:14:11;;;;;;;10.70;6.70;;;;;;;1.97;79.28;99066.31;129619;1262;127487;-63
2023/01/19 03:17:16;;;;;;;10.70;7.10;;;;;;;1.96;79.36;99064.23;129956;1255;115169;-62
2023/01/19 03:20:23;;;;;;;9.40;7.40;;;;;;;1.97;79.27;99066.31;130234;1257;115062;-62
2023/01/19 03:23:29;;;;;;;9.30;7.90;;;;;;;1.95;79.65;99067.45;130295;1256;114734;-62
2023/01/19 03:26:38;;;;;;;13.00;8.20;;;;;;;1.95;79.34;99062.16;129933;1257;114859;-62
2023/01/19 03:29:43;;;;;;;12.80;8.90;;;;;;;1.93;79.45;99061.17;129922;1264;127577;-62
2023/01/19 03:33:13;;;;;;;13.00;9.20;;;;;;;1.91;79.30;99065.27;130297;1257;114802;-62
2023/01/19 03:36:30;;;;;;;14.00;9.20;;;;;;;1.91;79.45;99071.96;129881;1277;114793;-63
2023/01/19 03:39:33;;;;;;;20.30;12.70;;;;;;;1.90;79.27;99073.27;130258;1257;114856;-62
2023/01/19 03:42:36;;;;;;;16.20;11.20;;;;;;;1.91;79.75;99073.93;129668;1277;114823;-62
2023/01/19 03:45:39;;;;;;;14.20;10.50;;;;;;;1.92;79.30;99074.06;130173;1257;114738;-62
2023/01/19 03:48:42;;;;;;;18.20;12.90;;;;;;;1.91;79.46;99072.33;129983;1257;115146;-62
2023/01/19 03:51:44;;;;;;;17.70;12.20;;;;;;;1.91;79.64;99074.26;129942;1257;114785;-63
2023/01/19 03:54:47;;;;;;;17.00;12.40;;;;;;;1.91;79.59;99071.81;129920;1257;115184;-62
2023/01/19 03:57:49;;;;;;;13.90;9.90;;;;;;;1.91;79.63;99073.54;130170;1253;114705;-62
2023/01/19 04:00:51;;;;;;;18.60;12.00;;;;;;;1.92;79.68;99068.59;130191;1257;114752;-62
2023/01/19 04:03:53;;;;;;;22.40;13.30;;;;;;;1.92;79.57;99068.40;129960;1253;114792;-65
2023/01/19 04:06:56;;;;;;;19.30;12.80;;;;;;;1.92;79.65;99072.10;129892;1253;128854;-62
2023/01/19 04:09:58;;;;;;;22.00;14.30;;;;;;;1.93;79.82;99074.03;129898;1255;114731;-62
2023/01/19 04:13:01;;;;;;;18.60;12.90;;;;;;;1.94;79.69;99075.05;129876;1254;115313;-63
2023/01/19 04:16:04;;;;;;;21.00;14.40;;;;;;;1.95;79.84;99075.38;130083;1254;114798;-62
2023/01/19 04:19:06;;;;;;;18.00;12.60;;;;;;;1.96;79.94;99083.08;129708;1253;114823;-63
2023/01/19 04:22:09;;;;;;;20.20;13.50;;;;;;;1.97;79.97;99089.39;129835;1257;114807;-61
2023/01/19 04:25:12;;;;;;;21.50;14.00;;;;;;;1.96;79.85;99088.88;129970;1254;114728;-62
2023/01/19 04:28:15;;;;;;;22.50;14.60;;;;;;;1.95;80.07;99094.55;129867;1253;114735;-60
2023/01/19 04:31:18;;;;;;;23.60;15.40;;;;;;;1.94;80.15;99097.05;130006;1257;115286;-61
2023/01/19 04:34:20;;;;;;;25.60;16.20;;;;;;;1.93;79.97;99103.77;129900;1257;114794;-61
2023/01/19 04:37:23;;;;;;;24.70;15.40;;;;;;;1.92;80.18;99105.40;129924;1273;114824;-62
2023/01/19 04:40:25;;;;;;;30.90;17.70;;;;;;;1.90;80.23;99112.14;129640;1274;116246;-61
2023/01/19 04:43:27;;;;;;;26.90;17.10;;;;;;;1.90;80.18;99113.71;129948;1257;114812;-61
2023/01/19 04:46:30;;;;;;;29.20;18.80;;;;;;;1.91;80.38;99119.33;129873;1257;114874;-61
2023/01/19 04:49:36;;;;;;;34.40;19.50;;;;;;;1.92;80.32;99130.74;130060;1257;115389;-61
2023/01/19 04:52:38;;;;;;;32.50;19.80;;;;;;;1.92;80.31;99147.11;129922;1254;115241;-62
2023/01/19 04:55:41;;;;;;;30.20;18.90;;;;;;;1.93;80.37;99156.61;129853;1257;114772;-61
2023/01/19 04:58:43;;;;;;;39.20;22.10;;;;;;;1.93;80.38;99166.98;129899;1253;114774;-61
2023/01/19 05:01:46;;;;;;;31.00;19.60;;;;;;;1.93;80.04;99171.39;129969;1277;129163;-61
2023/01/19 05:04:49;;;;;;;36.60;21.50;;;;;;;1.94;80.41;99177.69;129968;1258;114655;-61
2023/01/19 05:07:51;;;;;;;34.50;20.40;;;;;;;1.96;80.51;99178.17;129931;1272;114783;-61
2023/01/19 05:10:56;;;;;;;37.70;23.20;;;;;;;1.97;80.39;99176.71;130179;1257;115185;-61
2023/01/19 05:13:58;;;;;;;;;;;;;;;1.97;80.57;99179.36;129976;1257;115289;-62
2023/01/19 05:17:02;;;;;;;36.80;21.40;;;;;;;1.96;80.67;99188.55;129923;1259;114772;-62
2023/01/19 05:20:05;;;;;;;38.90;23.70;;;;;;;1.96;80.76;99190.50;129963;1254;114804;-61
2023/01/19 05:23:07;;;;;;;38.30;23.50;;;;;;;1.95;80.68;99191.23;129979;1257;115313;-61
2023/01/19 05:26:10;;;;;;;38.20;24.50;;;;;;;1.95;80.65;99178.53;130052;1270;115068;-61
2023/01/19 05:29:12;;;;;;;37.40;23.60;;;;;;;1.96;80.51;99175.86;130096;1257;114703;-61
2023/01/19 05:32:15;;;;;;;38.00;23.30;;;;;;;1.98;80.78;99177.94;130005;1262;114708;-61
2023/01/19 05:35:18;;;;;;;33.00;21.00;;;;;;;1.96;80.83;99179.39;130044;1270;114814;-61
2023/01/19 05:38:21;;;;;;;34.20;21.90;;;;;;;1.96;80.62;99181.14;129961;1260;114766;-61
2023/01/19 05:41:23;;;;;;;39.70;20.60;;;;;;;1.97;80.81;99182.36;129882;1272;114693;-61
2023/01/19 05:44:25;;;;;;;40.60;20.60;;;;;;;1.95;80.84;99187.17;129913;1277;114734;-61
2023/01/19 05:47:28;;;;;;;34.00;21.80;;;;;;;1.94;80.98;99196.90;129689;1256;114763;-61
2023/01/19 05:50:32;;;;;;;28.60;19.30;;;;;;;1.95;80.76;99194.55;129836;1257;115202;-61
2023/01/19 05:53:34;;;;;;;32.80;20.10;;;;;;;1.96;80.93;99194.36;129909;1259;114838;-61
2023/01/19 05:56:38;;;;;;;31.50;21.10;;;;;;;1.96;81.04;99199.45;129871;1254;114786;-61
2023/01/19 05:59:40;;;;;;;31.20;20.00;;;;;;;1.98;81.05;99197.31;129901;1255;114798;-61
2023/01/19 06:02:43;;;;;;;32.30;19.80;;;;;;;2.00;81.04;99204.10;130186;1254;114723;-61
2023/01/19 06:05:45;;;;;;;28.50;19.80;;;;;;;2.00;80.97;99208.13;129853;1260;115129;-61
2023/01/19 06:08:47;;;;;;;28.10;19.50;;;;;;;2.01;80.98;99219.57;129625;1257;114905;-61
2023/01/19 06:11:50;;;;;;;31.70;18.90;;;;;;;2.02;81.08;99231.34;129824;1259;114802;-61
2023/01/19 06:14:52;;;;;;;28.00;19.90;;;;;;;2.02;80.88;99242.95;129855;1254;114793;-61
2023/01/19 06:17:55;;;;;;;27.50;17.10;;;;;;;2.02;80.89;99246.63;130011;1257;115173;-61
2023/01/19 06:20:57;;;;;;;27.70;17.50;;;;;;;2.02;81.03;99245.77;129911;1277;115141;-61
2023/01/19 06:24:00;;;;;;;26.30;16.60;;;;;;;2.02;81.00;99243.83;129926;1259;114700;-61
2023/01/19 06:27:05;;;;;;;20.50;15.00;;;;;;;2.01;80.82;99250.90;129905;1257;114667;-61
2023/01/19 06:30:09;;;;;;;24.60;14.80;;;;;;;1.99;80.87;99259.94;129922;1273;114686;-61
2023/01/19 06:33:11;;;;;;;21.90;14.70;;;;;;;1.97;81.10;99262.83;129633;1262;115227;-61
2023/01/19 06:36:14;;;;;;;19.20;13.80;;;;;;;1.98;81.02;99265.27;129975;1257;114773;-61
2023/01/19 06:39:16;;;;;;;23.90;14.70;;;;;;;1.98;80.97;99270.56;129842;1270;114817;-61
2023/01/19 06:42:19;;;;;;;19.00;14.30;;;;;;;1.98;80.88;99280.93;129994;1257;115009;-61
2023/01/19 06:45:21;;;;;;;17.10;12.70;;;;;;;1.97;81.21;99284.48;129666;1254;114855;-61
2023/01/19 06:48:24;;;;;;;16.00;12.00;;;;;;;1.97;81.12;99289.06;129945;1253;115926;-61
2023/01/19 06:51:27;;;;;;;17.00;12.80;;;;;;;1.95;80.79;99289.66;129898;1257;114724;-62
2023/01/19 06:54:29;;;;;;;18.60;13.00;;;;;;;1.93;80.94;99291.83;129951;1253;115363;-61
2023/01/19 06:57:32;;;;;;;16.50;12.90;;;;;;;1.93;80.96;99290.77;129858;1259;114833;-61
2023/01/19 07:00:34;;;;;;;16.80;13.50;;;;;;;1.92;81.19;99295.38;129612;1258;114808;-61
2023/01/19 07:03:37;;;;;;;16.50;12.40;;;;;;;1.93;81.06;99296.41;129910;1260;114728;-61
2023/01/19 07:06:40;;;;;;;13.50;10.20;;;;;;;1.92;81.18;99301.88;129995;1254;114691;-61
2023/01/19 07:09:42;;;;;;;13.80;10.00;;;;;;;1.92;80.94;99301.17;129932;1257;114802;-61
2023/01/19 07:12:46;;;;;;;10.40;8.70;;;;;;;1.92;80.78;99302.07;129980;1253;114877;-62
2023/01/19 07:15:48;;;;;;;13.30;9.80;;;;;;;1.92;81.08;99299.06;129948;1254;115192;-61
2023/01/19 07:18:51;;;;;;;13.30;9.60;;;;;;;1.93;81.22;99296.21;129900;1272;115311;-62
2023/01/19 07:21:53;;;;;;;13.80;9.60;;;;;;;1.94;81.15;99295.85;130017;1253;114727;-61
2023/01/19 07:24:57;;;;;;;16.00;11.00;;;;;;;1.95;81.05;99299.17;130046;1254;114702;-61
2023/01/19 07:28:00;;;;;;;14.40;11.20;;;;;;;1.93;80.92;99299.90;129969;1277;114721;-61
2023/01/19 07:31:03;;;;;;;13.10;10.20;;;;;;;1.92;80.94;99301.52;129993;1277;127195;-61
2023/01/19 07:34:05;;;;;;;13.90;10.40;;;;;;;1.91;80.92;99301.90;130019;1256;114795;-61
2023/01/19 07:37:08;;;;;;;15.00;11.30;;;;;;;1.91;80.89;99303.67;129966;1257;114810;-62
2023/01/19 07:40:11;;;;;;;14.50;11.90;;;;;;;1.92;80.77;99309.27;129796;1254;244513;-65
2023/01/19 07:43:14;;;;;;;14.60;10.70;;;;;;;1.93;80.80;99312.08;129994;1257;114756;-61
2023/01/19 07:46:16;;;;;;;17.10;11.00;;;;;;;1.93;80.77;99304.84;129922;1258;114724;-61
2023/01/19 07:49:19;;;;;;;15.50;11.20;;;;;;;1.93;80.75;99300.98;129998;1259;114712;-61
2023/01/19 07:52:22;;;;;;;20.70;11.90;;;;;;;1.92;80.69;99304.35;130057;1257;115367;-61
2023/01/19 07:55:25;;;;;;;17.30;12.60;;;;;;;1.91;80.87;99301.73;130013;1257;114789;-61
2023/01/19 07:58:27;;;;;;;17.80;13.00;;;;;;;1.92;80.99;99295.38;130079;1257;114791;-61
2023/01/19 08:01:30;;;;;;;18.20;12.50;;;;;;;1.94;80.85;99297.08;130106;1254;114703;-61
2023/01/19 08:04:32;;;;;;;21.80;13.20;;;;;;;1.95;80.63;99295.46;129782;1262;114813;-61
2023/01/19 08:07:35;;;;;;;21.90;14.10;;;;;;;1.96;80.55;99301.77;130126;1257;114705;-62
2023/01/19 08:10:38;;;;;;;21.40;15.10;;;;;;;1.97;80.67;99306.83;130141;1259;114774;-62
2023/01/19 08:13:40;;;;;;;17.10;12.80;;;;;;;1.98;80.61;99314.58;130043;1259;116459;-62
2023/01/19 08:16:43;;;;;;;20.10;15.60;;;;;;;2.00;80.55;99318.23;130029;1256;114713;-61
2023/01/19 08:19:45;;;;;;;18.60;13.30;;;;;;;2.00;80.39;99317.15;130026;1254;114862;-61
2023/01/19 08:22:48;;;;;;;22.70;15.40;;;;;;;2.03;80.64;99316.72;130021;1257;115487;-61
2023/01/19 08:25:51;;;;;;;19.50;14.20;;;;;;;2.04;80.59;99322.30;130064;1254;114758;-61
2023/01/19 08:28:54;;;;;;;20.00;13.20;;;;;;;2.06;80.43;99330.72;129759;1277;127934;-63
2023/01/19 08:31:58;;;;;;;19.60;13.80;;;;;;;2.08;80.54;99332.05;130110;1264;114686;-63
2023/01/19 08:35:01;;;;;;;19.10;12.70;;;;;;;2.08;80.55;99333.27;130114;1259;114718;-63
2023/01/19 08:38:05;;;;;;;18.30;13.20;;;;;;;2.10;80.17;99339.55;130567;1256;114723;-62
2023/01/19 08:41:07;;;;;;;19.40;14.30;;;;;;;2.12;80.32;99343.73;130361;1254;114722;-62
2023/01/19 08:44:11;;;;;;;12.10;9.40;;;;;;;2.15;80.39;99348.40;130209;1256;127704;-62
2023/01/19 08:47:13;;;;;;;15.60;12.50;;;;;;;2.18;80.17;99347.60;130317;1254;114746;-62
2023/01/19 08:50:16;;;;;;;16.40;11.30;;;;;;;2.20;80.17;99347.03;130297;1257;115135;-62
2023/01/19 08:53:19;;;;;;;14.30;9.90;;;;;;;2.24;80.28;99345.30;129977;1259;114899;-62
2023/01/19 08:56:25;;;;;;;14.80;10.70;;;;;;;2.29;80.24;99341.63;130184;1262;114705;-62
2023/01/19 08:59:27;;;;;;;14.40;10.40;;;;;;;2.33;80.04;99338.15;129604;1254;114870;-62
2023/01/19 09:02:29;;;;;;;20.40;10.10;;;;;;;2.40;80.01;99333.88;130335;1259;114760;-65
2023/01/19 09:05:36;;;;;;;18.10;10.50;;;;;;;2.46;79.93;99342.68;130311;1258;114847;-66
2023/01/19 09:08:38;;;;;;;14.50;9.90;;;;;;;2.52;79.40;99347.08;130175;1270;115364;-65
2023/01/19 09:11:41;;;;;;;13.00;9.80;;;;;;;2.56;79.25;99353.12;130302;1272;115205;-66
2023/01/19 09:14:43;;;;;;;15.10;9.40;;;;;;;2.60;78.90;99356.52;130283;1254;115228;-65
2023/01/19 09:17:45;;;;;;;15.40;10.90;;;;;;;2.63;78.75;99361.88;130248;1258;115193;-66
2023/01/19 09:20:49;;;;;;;19.30;12.00;;;;;;;2.67;79.08;99367.39;130227;1274;115075;-65
2023/01/19 09:23:53;;;;;;;19.30;13.00;;;;;;;2.71;78.79;99371.16;129780;1262;128001;-65
2023/01/19 09:26:56;;;;;;;18.00;12.00;;;;;;;2.71;78.53;99379.63;130001;1277;114737;-65
2023/01/19 09:29:58;;;;;;;14.90;10.70;;;;;;;2.71;78.41;99378.21;130247;1259;114997;-66
2023/01/19 09:33:06;;;;;;;22.20;12.60;;;;;;;2.75;78.57;99381.60;130274;1257;114750;-66
2023/01/19 09:36:08;;;;;;;17.70;12.90;;;;;;;2.81;78.76;99386.17;130196;1259;114613;-65
2023/01/19 09:39:10;;;;;;;19.10;13.10;;;;;;;2.87;78.54;99387.55;130198;1271;114616;-66
2023/01/19 09:42:42;;;;;;;26.30;14.90;;;;;;;2.92;78.37;99384.94;130262;1275;114818;-65
2023/01/19 09:45:50;;;;;;;21.20;13.00;;;;;;;2.99;78.35;99382.23;130040;1277;128600;-65
2023/01/19 09:48:55;;;;;;;18.20;12.10;;;;;;;3.09;78.27;99376.59;130256;1259;115202;-63
2023/01/19 09:51:58;;;;;;;25.50;15.10;;;;;;;3.16;78.08;99376.20;129618;1253;114754;-63
2023/01/19 09:55:01;;;;;;;27.10;15.60;;;;;;;3.23;78.01;99373.14;130009;1258;114707;-62
2023/01/19 09:58:05;;;;;;;29.40;19.90;;;;;;;3.31;77.85;99372.70;129913;1255;114781;-64
2023/01/19 10:01:31;;;;;;;24.20;16.00;;;;;;;3.40;77.79;99370.43;129628;1277;127662;-65
2023/01/19 10:04:47;;;;;;;22.20;14.70;;;;;;;3.55;78.12;99367.25;129998;1262;114895;-63
2023/01/19 10:08:02;;;;;;;33.70;18.20;;;;;;;3.71;77.81;99363.85;129872;1253;114876;-64
2023/01/19 10:11:15;;;;;;;31.90;16.10;;;;;;;3.81;77.11;99352.53;129814;1261;115102;-62
2023/01/19 10:14:35;;;;;;;21.70;13.20;;;;;;;3.93;77.15;99348.92;129794;1259;114876;-63
2023/01/19 10:17:45;;;;;;;23.30;13.10;;;;;;;4.06;77.02;99350.89;129922;1254;127890;-64
2023/01/19 10:20:50;;;;;;;21.00;13.60;;;;;;;4.12;76.42;99349.27;129751;1254;115208;-64
2023/01/19 10:24:01;;;;;;;23.70;15.20;;;;;;;4.16;76.28;99348.08;130055;1259;114718;-65
2023/01/19 10:27:11;;;;;;;25.10;14.90;;;;;;;4.25;76.82;99345.92;129949;1259;114706;-65
2023/01/19 10:30:22;;;;;;;20.00;12.30;;;;;;;4.36;76.32;99348.53;129808;1254;114728;-62
2023/01/19 10:33:24;;;;;;;18.30;12.40;;;;;;;4.48;76.05;99350.34;129935;1277;128773;-62
2023/01/19 10:36:35;;;;;;;15.00;10.30;;;;;;;4.54;75.24;99344.79;130279;1259;114677;-62
2023/01/19 10:39:37;;;;;;;20.00;11.40;;;;;;;4.56;74.66;99342.42;129979;1259;114856;-62
2023/01/19 10:42:40;;;;;;;21.10;11.10;;;;;;;4.60;74.79;99351.80;130073;1259;115205;-62
2023/01/19 10:45:49;;;;;;;20.00;11.80;;;;;;;4.65;74.58;99352.33;129953;1263;115193;-62
2023/01/19 10:48:52;;;;;;;21.80;12.90;;;;;;;4.68;74.00;99356.09;130189;1259;128871;-62
2023/01/19 10:51:56;;;;;;;18.80;10.90;;;;;;;4.70;74.07;99352.81;130153;1259;115152;-62
2023/01/19 10:55:00;;;;;;;13.40;9.20;;;;;;;4.77;74.17;99356.61;129918;1275;114707;-62
2023/01/19 10:58:04;;;;;;;17.40;9.80;;;;;;;4.80;73.62;99358.23;129940;1259;115347;-62
2023/01/19 11:01:35;;;;;;;15.50;10.00;;;;;;;4.78;73.13;99359.20;130014;1258;114686;-62
2023/01/19 11:04:38;;;;;;;19.30;12.30;;;;;;;4.80;73.29;99357.54;130206;1277;127386;-62
2023/01/19 11:07:40;;;;;;;17.20;11.70;;;;;;;4.78;72.37;99354.46;129892;1277;114722;-61
2023/01/19 11:10:52;;;;;;;23.50;12.30;;;;;;;4.75;72.93;99353.34;130037;1254;115191;-62
2023/01/19 11:14:28;;;;;;;20.90;12.10;;;;;;;4.72;72.64;99351.69;130110;1277;114818;-62
2023/01/19 11:17:32;;;;;;;20.80;11.50;;;;;;;4.64;72.40;99354.64;129981;1259;114710;-61
2023/01/19 11:20:50;;;;;;;20.20;10.20;;;;;;;4.58;72.09;99351.00;129678;1260;128000;-63
2023/01/19 11:23:55;;;;;;;19.30;10.60;;;;;;;4.50;71.74;99350.80;129631;1278;115195;-63
2023/01/19 11:27:01;;;;;;;20.50;11.10;;;;;;;4.43;71.99;99345.94;129863;1259;114703;-63
2023/01/19 11:30:15;;;;;;;17.10;11.50;;;;;;;4.37;71.91;99339.64;129786;1259;114702;-63
2023/01/19 11:33:31;;;;;;;18.70;10.70;;;;;;;4.29;71.68;99336.75;129766;1255;114653;-62
2023/01/19 11:36:35;;;;;;;17.90;10.70;;;;;;;4.23;71.76;99343.18;129660;1259;128734;-62
2023/01/19 11:39:54;;;;;;;18.50;10.00;;;;;;;4.16;71.59;99344.02;129720;1259;115231;-62
2023/01/19 11:42:56;;;;;;;18.40;10.20;;;;;;;4.09;71.43;99340.89;130120;1259;114815;-62
2023/01/19 11:45:59;;;;;;;18.00;10.50;;;;;;;4.02;71.43;99341.67;130079;1259;114702;-62
2023/01/19 11:49:04;;;;;;;18.60;10.90;;;;;;;3.97;71.47;99340.47;130317;1255;114797;-62
2023/01/19 11:52:25;;;;;;;20.40;10.00;;;;;;;3.97;71.68;99337.83;130025;1277;128789;-61
2023/01/19 11:55:55;;;;;;;17.70;10.00;;;;;;;3.96;71.46;99332.02;129761;1277;115157;-64
2023/01/19 11:58:58;;;;;;;15.60;9.40;;;;;;;3.92;71.16;99328.81;129259;1268;114868;-62
2023/01/19 12:02:03;;;;;;;20.70;9.70;;;;;;;3.90;71.43;99326.59;129270;1267;114894;-64
2023/01/19 12:05:08;;;;;;;17.60;10.60;;;;;;;3.86;71.05;99324.12;129686;1268;115244;-63
2023/01/19 12:08:21;;;;;;;16.90;10.80;;;;;;;3.81;71.08;99317.58;129203;1270;127997;-62
2023/01/19 12:11:32;;;;;;;16.70;10.40;;;;;;;3.76;71.09;99316.87;129225;1269;114866;-64
2023/01/19 12:15:00;;;;;;;18.90;11.20;;;;;;;3.71;71.12;99308.59;129116;1286;114836;-61
2023/01/19 12:18:05;;;;;;;26.50;13.10;;;;;;;3.68;71.37;99303.95;129032;1268;114811;-63
2023/01/19 12:21:07;;;;;;;22.30;11.60;;;;;;;3.64;71.01;99304.58;128990;1270;114795;-62
2023/01/19 12:24:15;;;;;;;19.60;10.90;;;;;;;3.61;71.17;99297.64;129019;1267;115397;-62
2023/01/19 12:27:40;;;;;;;21.80;12.00;;;;;;;3.62;71.12;99292.70;129056;1277;115387;-62
2023/01/19 12:30:43;;;;;;;18.90;12.10;;;;;;;3.63;71.40;99297.04;129054;1265;114810;-62
2023/01/19 12:33:46;;;;;;;17.30;10.40;;;;;;;3.63;71.10;99296.34;129162;1265;114880;-62
2023/01/19 12:36:50;;;;;;;24.30;12.60;;;;;;;3.62;71.03;99295.69;129484;1267;115288;-61
2023/01/19 12:39:53;;;;;;;20.10;13.30;;;;;;;3.61;70.82;99298.88;129716;1262;114695;-63
2023/01/19 12:43:02;;;;;;;25.10;14.90;;;;;;;3.57;70.57;99297.45;129849;1279;115125;-62
2023/01/19 12:46:28;;;;;;;16.70;9.60;;;;;;;3.53;70.62;99298.83;129759;1261;114948;-62
2023/01/19 12:49:34;;;;;;;;;;;;;;;3.51;70.59;99305.27;129880;1262;114817;-64
2023/01/19 12:52:48;;;;;;;14.20;9.00;;;;;;;3.44;69.97;99305.86;129986;1260;114658;-62
2023/01/19 12:56:00;;;;;;;16.30;8.90;;;;;;;3.39;69.98;99310.64;129937;1260;129145;-62
2023/01/19 12:59:03;;;;;;;17.00;10.00;;;;;;;3.36;69.80;99311.63;130027;1279;115231;-62
2023/01/19 13:02:24;;;;;;;13.00;8.60;;;;;;;3.34;69.82;99319.80;130005;1260;115250;-64
2023/01/19 13:05:29;;;;;;;25.40;15.50;;;;;;;3.30;69.61;99318.38;129504;1263;115158;-63
2023/01/19 13:08:54;;;;;;;18.70;10.10;;;;;;;3.26;69.64;99316.40;129578;1262;114818;-62
2023/01/19 13:12:12;;;;;;;15.20;7.80;;;;;;;3.22;69.01;99319.91;129490;1279;128264;-61
2023/01/19 13:15:34;;;;;;;21.70;10.60;;;;;;;3.17;69.39;99317.58;129871;1277;115208;-63
2023/01/19 13:18:39;;;;;;;29.50;13.70;;;;;;;3.11;69.28;99316.91;130056;1258;114696;-63
2023/01/19 13:21:46;;;;;;;22.90;9.90;;;;;;;3.08;69.16;99317.03;129974;1260;114689;-64
2023/01/19 13:25:12;;;;;;;19.40;8.90;;;;;;;3.05;69.15;99316.44;130016;1269;114704;-63
2023/01/19 13:28:16;;;;;;;20.70;9.20;;;;;;;2.99;68.61;99317.87;129983;1277;129094;-63
2023/01/19 13:31:19;;;;;;;15.80;8.30;;;;;;;2.93;68.64;99318.58;129728;1260;115150;-62
2023/01/19 13:34:24;;;;;;;18.20;9.40;;;;;;;2.89;68.52;99322.61;129953;1258;114718;-64
2023/01/19 13:37:36;;;;;;;15.50;8.90;;;;;;;2.85;68.68;99331.02;129672;1259;114849;-63
2023/01/19 13:40:39;;;;;;;22.00;11.00;;;;;;;2.83;68.55;99334.06;129764;1262;114740;-64
2023/01/19 13:43:42;;;;;;;21.30;10.40;;;;;;;2.80;68.51;99337.52;129762;1260;114713;-64
2023/01/19 13:46:44;;;;;;;28.30;13.00;;;;;;;2.77;68.47;99338.52;129974;1259;114777;-63
2023/01/19 13:49:55;;;;;;;18.00;9.90;;;;;;;2.73;68.40;99342.71;129782;1254;115125;-61
2023/01/19 13:52:58;;;;;;;24.70;13.70;;;;;;;2.71;68.81;99344.89;129905;1259;114753;-62
2023/01/19 13:56:17;;;;;;;22.30;12.00;;;;;;;2.68;68.62;99347.46;130265;1254;115432;-63
2023/01/19 13:59:19;;;;;;;19.60;11.30;;;;;;;2.64;68.58;99346.68;130197;1277;126664;-61
2023/01/19 14:02:21;;;;;;;16.20;9.90;;;;;;;2.62;68.79;99349.74;129897;1277;114705;-62
2023/01/19 14:05:34;;;;;;;13.90;9.00;;;;;;;2.60;68.69;99351.23;130102;1258;115164;-63
2023/01/19 14:08:36;;;;;;;20.10;13.30;;;;;;;2.58;68.68;99350.94;129724;1262;114757;-63
2023/01/19 14:11:39;;;;;;;19.20;11.00;;;;;;;2.57;69.05;99353.80;129824;1257;114706;-64
2023/01/19 14:14:42;;;;;;;17.50;12.00;;;;;;;2.55;69.04;99357.04;130001;1260;114826;-63
2023/01/19 14:18:08;;;;;;;54.30;29.50;;;;;;;2.53;69.17;99355.48;129872;1277;115386;-65
2023/01/19 14:21:12;;;;;;;42.10;25.50;;;;;;;2.51;69.30;99357.88;129651;1260;115162;-63